Time;durP1;ratioP1;P1;durP2;ratioP2;P2;SDS_P1;SDS_P2;PMS_P1;PMS_P2;Temp;Humidity;BMP_temperature;BMP_pressure;BME280_temperature;BME280_humidity;BME280_pressure;Samples;Min_cycle;Max_cycle;Signal;HPM_P1;HPM_P2
2021/01/26 00:01:55;;;;;;;20.37;2.83;;;5.40;77.60;;;;;;5052832;28;20036;-76
2021/01/26 00:04:21;;;;;;;14.03;2.97;;;5.40;77.60;;;;;;5052846;28;20413;-76
2021/01/26 00:06:47;;;;;;;10.03;2.10;;;5.30;77.20;;;;;;5054221;28;20021;-76
2021/01/26 00:09:12;;;;;;;18.13;3.00;;;5.30;77.40;;;;;;5052644;28;20116;-76
2021/01/26 00:11:38;;;;;;;16.97;3.23;;;5.30;77.70;;;;;;5053564;28;20029;-76
2021/01/26 00:14:03;;;;;;;14.87;2.50;;;5.30;77.60;;;;;;5053691;28;20029;-76
2021/01/26 00:16:29;;;;;;;11.17;2.43;;;5.30;77.60;;;;;;5052738;28;20025;-78
2021/01/26 00:18:54;;;;;;;14.23;2.70;;;5.30;77.70;;;;;;5051116;28;20037;-76
2021/01/26 00:21:20;;;;;;;12.47;2.30;;;5.30;77.70;;;;;;5052619;28;20048;-78
2021/01/26 00:23:45;;;;;;;16.73;2.57;;;5.20;77.90;;;;;;5052064;28;20037;-76
2021/01/26 00:26:11;;;;;;;13.43;2.40;;;5.30;78.00;;;;;;5053827;28;20421;-75
2021/01/26 00:28:37;;;;;;;22.53;2.83;;;5.20;78.20;;;;;;5052949;28;20104;-76
2021/01/26 00:31:02;;;;;;;13.00;3.30;;;5.20;78.30;;;;;;5053216;28;20037;-77
2021/01/26 00:33:28;;;;;;;12.63;2.60;;;5.20;77.80;;;;;;5053480;28;20462;-76
2021/01/26 00:35:53;;;;;;;21.70;2.80;;;5.20;78.00;;;;;;5052115;28;20029;-76
2021/01/26 00:38:19;;;;;;;19.10;2.93;;;5.20;78.00;;;;;;5051696;28;20390;-76
2021/01/26 00:40:45;;;;;;;13.03;2.60;;;5.20;78.50;;;;;;5051723;28;20116;-77
2021/01/26 00:43:11;;;;;;;13.37;2.60;;;5.20;78.20;;;;;;5052090;28;20060;-76
2021/01/26 00:45:37;;;;;;;13.03;2.63;;;5.20;78.10;;;;;;5052324;28;20041;-76
2021/01/26 00:48:03;;;;;;;16.40;2.83;;;5.10;78.30;;;;;;5051762;28;20174;-76
2021/01/26 00:50:28;;;;;;;16.07;2.83;;;5.10;78.40;;;;;;5051896;28;20142;-76
2021/01/26 00:52:55;;;;;;;13.83;2.30;;;5.10;78.60;;;;;;5051919;28;20231;-76
2021/01/26 00:55:21;;;;;;;17.17;3.20;;;5.00;78.60;;;;;;5053296;28;20029;-76
2021/01/26 00:57:46;;;;;;;18.03;2.90;;;5.00;78.80;;;;;;5051944;28;20075;-76
2021/01/26 01:00:28;;;;;;;16.47;2.40;;;4.90;79.10;;;;;;5053641;28;20120;-77
2021/01/26 01:02:53;;;;;;;;;;;4.80;79.50;;;;;;5052690;28;20029;-76
2021/01/26 01:05:19;;;;;;;16.37;2.97;;;4.80;79.30;;;;;;5052772;28;20610;-76
2021/01/26 01:07:44;;;;;;;10.53;2.57;;;4.80;79.50;;;;;;5052030;28;20029;-77
2021/01/26 01:10:11;;;;;;;20.30;3.63;;;4.90;79.30;;;;;;5054728;28;20584;-76
2021/01/26 01:12:37;;;;;;;17.07;2.80;;;4.90;79.30;;;;;;5056812;28;20032;-76
2021/01/26 01:15:05;;;;;;;15.80;2.23;;;4.90;79.30;;;;;;5055778;28;20028;-76
2021/01/26 01:17:30;;;;;;;16.13;2.90;;;4.80;79.40;;;;;;5039053;28;20025;-76
2021/01/26 01:19:56;;;;;;;17.47;2.30;;;4.90;78.90;;;;;;5038669;28;20086;-77
2021/01/26 01:22:22;;;;;;;18.70;2.87;;;4.90;78.80;;;;;;5056283;28;20490;-76
2021/01/26 01:24:47;;;;;;;17.17;2.63;;;4.90;79.10;;;;;;5055501;28;20039;-76
2021/01/26 01:27:13;;;;;;;16.13;2.60;;;4.80;79.20;;;;;;5055669;28;20037;-76
2021/01/26 01:29:38;;;;;;;19.03;2.80;;;4.80;79.30;;;;;;5055573;28;20029;-76
2021/01/26 01:32:04;;;;;;;15.70;3.10;;;4.80;79.50;;;;;;5056696;28;20506;-76
2021/01/26 01:34:30;;;;;;;15.70;3.20;;;4.80;79.60;;;;;;5038613;28;20029;-76
2021/01/26 01:36:55;;;;;;;11.30;2.57;;;4.90;79.00;;;;;;5056661;28;20100;-76
2021/01/26 01:39:21;;;;;;;12.50;2.33;;;4.90;78.90;;;;;;5055258;28;20036;-77
2021/01/26 01:41:46;;;;;;;14.03;2.30;;;4.70;79.30;;;;;;5056805;28;20040;-76
2021/01/26 01:44:12;;;;;;;21.53;3.10;;;4.70;79.40;;;;;;5055391;28;20037;-76
2021/01/26 01:46:47;;;;;;;19.53;3.00;;;4.70;79.40;;;;;;5055179;28;20405;-76
2021/01/26 01:49:15;;;;;;;9.07;2.33;;;4.70;79.50;;;;;;5039735;28;20037;-76
2021/01/26 01:51:41;;;;;;;19.37;2.67;;;4.70;79.60;;;;;;5038644;28;20053;-76
2021/01/26 01:54:18;;;;;;;15.80;3.20;;;4.70;79.80;;;;;;5055064;28;20110;-76
2021/01/26 01:57:00;;;;;;;21.77;3.00;;;4.70;79.60;;;;;;5055112;28;20036;-77
2021/01/26 01:59:28;;;;;;;18.63;2.80;;;4.60;79.50;;;;;;5053895;28;20025;-77
2021/01/26 02:01:53;;;;;;;16.97;2.50;;;4.60;79.80;;;;;;5055228;28;20021;-76
2021/01/26 02:04:21;;;;;;;18.97;2.90;;;4.60;80.20;;;;;;5055253;28;20033;-76
2021/01/26 02:06:51;;;;;;;16.63;2.43;;;4.50;80.40;;;;;;5038362;28;20017;-76
2021/01/26 02:09:17;;;;;;;16.67;2.60;;;4.60;79.60;;;;;;5038283;28;20450;-76
2021/01/26 02:11:46;;;;;;;12.17;2.23;;;4.50;80.00;;;;;;5054476;28;20409;-76
2021/01/26 02:14:12;;;;;;;15.77;3.40;;;4.40;80.70;;;;;;5054672;28;20029;-76
2021/01/26 02:17:00;;;;;;;16.27;3.00;;;4.30;81.10;;;;;;5055538;28;20029;-76
2021/01/26 02:19:44;;;;;;;20.40;2.90;;;4.20;81.30;;;;;;5054255;28;20041;-76
2021/01/26 02:22:23;;;;;;;16.83;2.60;;;4.20;81.30;;;;;;5055907;28;20104;-76
2021/01/26 02:25:04;;;;;;;11.13;2.47;;;4.10;81.60;;;;;;5054505;28;20385;-76
2021/01/26 02:27:57;;;;;;;14.45;2.53;;;4.10;81.80;;;;;;5055751;28;20025;-76
2021/01/26 02:30:47;;;;;;;17.53;2.97;;;4.00;81.90;;;;;;5056006;28;20032;-76
2021/01/26 02:34:06;;;;;;;22.50;2.67;;;4.00;82.20;;;;;;5055467;28;20073;-76
2021/01/26 02:36:43;;;;;;;17.83;2.90;;;4.00;82.20;;;;;;5057188;28;20032;-76
2021/01/26 02:39:26;;;;;;;15.90;3.00;;;3.90;82.30;;;;;;5038837;28;20042;-76
2021/01/26 02:42:03;;;;;;;13.87;2.57;;;3.90;82.40;;;;;;5054634;28;20035;-76
2021/01/26 02:44:35;;;;;;;15.50;2.40;;;3.90;82.40;;;;;;5055767;28;20123;-76
2021/01/26 02:47:36;;;;;;;17.43;2.47;;;3.90;82.30;;;;;;5038216;28;20017;-76
2021/01/26 02:50:30;;;;;;;9.60;1.98;;;3.90;82.50;;;;;;5053376;28;20029;-76
2021/01/26 02:53:04;;;;;;;17.67;3.13;;;3.80;82.40;;;;;;5053286;28;20501;-76
2021/01/26 02:55:36;;;;;;;23.33;2.97;;;3.90;82.40;;;;;;5054064;28;20152;-76
2021/01/26 02:58:08;;;;;;;11.93;2.40;;;3.90;82.40;;;;;;5053664;28;20425;-76
2021/01/26 03:00:35;;;;;;;18.57;3.63;;;3.90;82.50;;;;;;5037842;28;20163;-76
2021/01/26 03:03:06;;;;;;;18.67;3.33;;;3.80;82.70;;;;;;5037400;28;20087;-76
2021/01/26 03:05:46;;;;;;;17.40;3.00;;;3.80;83.00;;;;;;5037780;28;20021;-76
2021/01/26 03:08:26;;;;;;;17.80;3.10;;;3.80;83.00;;;;;;5037240;28;20025;-76
2021/01/26 03:10:58;;;;;;;17.37;3.73;;;3.70;83.20;;;;;;5037929;28;20052;-77
2021/01/26 03:13:24;;;;;;;24.00;4.40;;;3.70;83.20;;;;;;5036441;28;20021;-77
2021/01/26 03:16:04;;;;;;;24.23;5.93;;;3.70;83.40;;;;;;5035465;28;20454;-77
2021/01/26 03:18:36;;;;;;;21.20;6.50;;;3.70;83.70;;;;;;5037339;28;20025;-77
2021/01/26 03:21:02;;;;;;;28.00;8.93;;;3.70;83.70;;;;;;5036892;28;20115;-76
2021/01/26 03:23:35;;;;;;;34.40;9.30;;;3.70;83.60;;;;;;5036988;28;20573;-76
2021/01/26 03:26:00;;;;;;;31.10;10.17;;;3.70;83.80;;;;;;5036807;28;20028;-76
2021/01/26 03:28:26;;;;;;;31.37;8.57;;;3.60;84.00;;;;;;5036828;28;20025;-76
2021/01/26 03:30:53;;;;;;;37.63;9.73;;;3.50;84.30;;;;;;5053191;28;20029;-76
2021/01/26 03:33:21;;;;;;;31.53;8.83;;;3.50;84.60;;;;;;5036198;28;20032;-76
2021/01/26 03:35:47;;;;;;;38.17;7.67;;;3.50;84.80;;;;;;5036704;28;20021;-77
2021/01/26 03:38:17;;;;;;;28.60;7.23;;;3.40;84.90;;;;;;5052847;28;20036;-77
2021/01/26 03:40:43;;;;;;;29.77;8.02;;;3.40;85.00;;;;;;5037070;28;20025;-76
2021/01/26 03:43:08;;;;;;;31.83;7.73;;;3.40;85.30;;;;;;5052705;28;20040;-76
2021/01/26 03:45:34;;;;;;;31.03;8.03;;;3.30;85.30;;;;;;5053655;28;20112;-78
2021/01/26 03:48:21;;;;;;;22.47;7.00;;;3.30;85.50;;;;;;5051919;28;20033;-77
2021/01/26 03:51:06;;;;;;;25.90;7.00;;;3.30;85.50;;;;;;5039246;28;20450;-76
2021/01/26 03:53:41;;;;;;;28.93;6.70;;;3.30;85.60;;;;;;5036086;28;20100;-77
2021/01/26 03:56:19;;;;;;;19.80;6.13;;;3.30;85.50;;;;;;5053751;28;20056;-77
2021/01/26 03:59:03;;;;;;;25.73;5.57;;;3.30;85.60;;;;;;5035620;28;20036;-76
2021/01/26 04:01:39;;;;;;;20.17;5.40;;;3.20;85.70;;;;;;5054259;28;20017;-76
2021/01/26 04:04:23;;;;;;;16.40;4.80;;;3.20;86.00;;;;;;5052679;28;20033;-76
2021/01/26 04:06:53;;;;;;;18.07;4.43;;;3.10;86.20;;;;;;5053594;28;20033;-76
2021/01/26 04:09:22;;;;;;;15.93;5.13;;;3.10;86.40;;;;;;5036356;28;20500;-76
2021/01/26 04:11:55;;;;;;;23.63;5.40;;;3.00;86.60;;;;;;5020483;28;20024;-76
2021/01/26 04:14:37;;;;;;;23.93;6.47;;;3.00;86.40;;;;;;5036768;28;20103;-76
2021/01/26 04:17:10;;;;;;;23.50;5.97;;;3.00;86.50;;;;;;5052174;28;20025;-76
2021/01/26 04:19:45;;;;;;;24.03;4.67;;;3.00;86.60;;;;;;5052518;28;20029;-77
2021/01/26 04:22:11;;;;;;;23.27;6.30;;;3.00;86.50;;;;;;5036156;28;20024;-76
2021/01/26 04:24:37;;;;;;;25.53;6.17;;;3.00;86.60;;;;;;5035680;28;20100;-76
2021/01/26 04:27:23;;;;;;;29.20;6.93;;;3.00;86.30;;;;;;5053391;28;20100;-76
2021/01/26 04:29:48;;;;;;;22.07;5.67;;;3.00;86.70;;;;;;5036232;28;20021;-76
2021/01/26 04:32:18;;;;;;;24.77;6.40;;;2.90;87.10;;;;;;5035754;28;20022;-76
2021/01/26 04:34:44;;;;;;;27.20;6.57;;;2.80;87.20;;;;;;5035968;28;20031;-76
2021/01/26 04:37:09;;;;;;;29.47;7.77;;;2.80;87.20;;;;;;5052441;28;20029;-76
2021/01/26 04:39:35;;;;;;;27.97;8.13;;;2.80;87.40;;;;;;5053042;28;20070;-76
2021/01/26 04:42:22;;;;;;;28.60;8.70;;;2.80;87.40;;;;;;5053456;28;20024;-76
2021/01/26 04:45:12;;;;;;;32.10;7.80;;;2.80;87.50;;;;;;5038878;28;20420;-76
2021/01/26 04:47:50;;;;;;;32.63;7.83;;;2.80;87.20;;;;;;5057689;28;20094;-77
2021/01/26 04:50:34;;;;;;;33.87;8.23;;;2.80;86.90;;;;;;5041383;28;20049;-76
2021/01/26 04:53:22;;;;;;;31.83;7.83;;;2.80;86.80;;;;;;5056176;28;20044;-78
2021/01/26 04:56:02;;;;;;;25.27;7.07;;;2.80;87.00;;;;;;5039594;28;20028;-76
2021/01/26 04:58:49;;;;;;;23.27;6.67;;;2.70;87.20;;;;;;5039722;28;20455;-76
2021/01/26 05:01:40;;;;;;;23.83;6.67;;;2.70;87.10;;;;;;5055890;28;20021;-78
2021/01/26 05:04:12;;;;;;;27.33;6.70;;;2.60;87.10;;;;;;5055913;28;20037;-76
2021/01/26 05:06:46;;;;;;;28.50;6.93;;;2.60;87.20;;;;;;5039783;28;20025;-76
2021/01/26 05:09:15;;;;;;;27.13;6.93;;;2.60;87.20;;;;;;5039986;28;20021;-76
2021/01/26 05:11:41;;;;;;;24.93;6.60;;;2.60;86.80;;;;;;5055868;28;20029;-76
2021/01/26 05:14:29;;;;;;;29.93;6.97;;;2.60;86.80;;;;;;5038756;28;20386;-75
2021/01/26 05:17:08;;;;;;;28.53;6.63;;;2.60;86.70;;;;;;5056026;28;20112;-75
2021/01/26 05:19:43;;;;;;;28.80;7.30;;;2.50;86.80;;;;;;5039887;28;20162;-76
2021/01/26 05:22:29;;;;;;;30.67;7.90;;;2.50;86.90;;;;;;5039506;28;20053;-76
2021/01/26 05:25:11;;;;;;;29.07;7.40;;;2.50;86.80;;;;;;5060055;28;20033;-76
2021/01/26 05:27:37;;;;;;;24.93;7.27;;;2.50;86.80;;;;;;5056967;28;20028;-76
2021/01/26 05:30:05;;;;;;;31.57;7.83;;;2.40;86.80;;;;;;5055762;28;20028;-76
2021/01/26 05:32:31;;;;;;;30.93;7.90;;;2.40;86.70;;;;;;5055733;28;20032;-76
2021/01/26 05:34:56;;;;;;;36.20;9.17;;;2.50;86.70;;;;;;5055359;28;20461;-76
2021/01/26 05:37:22;;;;;;;34.93;8.80;;;2.40;86.70;;;;;;5055842;28;20029;-76
2021/01/26 05:40:15;;;;;;;29.90;9.13;;;2.40;86.80;;;;;;5038438;28;20029;-77
2021/01/26 05:42:43;;;;;;;36.33;9.83;;;2.40;86.80;;;;;;5052250;28;20045;-76
2021/01/26 05:45:29;;;;;;;34.40;9.13;;;2.40;87.00;;;;;;5039127;28;20021;-76
2021/01/26 05:48:18;;;;;;;29.33;9.10;;;2.40;87.00;;;;;;5041390;28;20445;-76
2021/01/26 05:50:44;;;;;;;28.83;8.20;;;2.40;87.20;;;;;;5055563;28;20025;-75
2021/01/26 05:53:30;;;;;;;19.27;6.07;;;2.30;87.30;;;;;;5055185;28;20072;-77
2021/01/26 05:56:10;;;;;;;20.47;5.30;;;2.30;87.50;;;;;;5038660;28;20040;-76
2021/01/26 05:58:37;;;;;;;15.07;4.17;;;2.30;87.70;;;;;;5055498;28;20017;-76
2021/01/26 06:01:06;;;;;;;14.53;3.77;;;2.30;87.60;;;;;;5054878;28;20025;-76
2021/01/26 06:03:32;;;;;;;17.43;4.53;;;2.30;87.50;;;;;;5054946;28;20493;-76
2021/01/26 06:06:03;;;;;;;18.23;3.70;;;2.40;87.50;;;;;;5056044;28;20110;-76
2021/01/26 06:08:29;;;;;;;28.27;3.43;;;2.40;87.30;;;;;;5056237;28;20025;-76
2021/01/26 06:10:55;;;;;;;22.13;3.33;;;2.40;87.30;;;;;;5055235;28;20021;-75
2021/01/26 06:13:28;;;;;;;9.57;3.20;;;2.40;87.00;;;;;;5056391;28;20037;-77
2021/01/26 06:16:14;;;;;;;17.67;3.30;;;2.40;87.20;;;;;;5039031;28;20017;-77
2021/01/26 06:18:55;;;;;;;15.03;3.50;;;2.30;87.10;;;;;;5055799;28;20043;-77
2021/01/26 06:21:20;;;;;;;;;;;2.30;87.20;;;;;;5055267;28;20032;-76
2021/01/26 06:23:46;;;;;;;11.83;3.30;;;2.30;87.40;;;;;;5055993;28;19913;-77
2021/01/26 06:26:14;;;;;;;12.00;2.90;;;2.30;87.40;;;;;;5056166;28;20120;-77
2021/01/26 06:28:52;;;;;;;12.30;2.73;;;2.30;87.70;;;;;;5055954;28;20033;-77
2021/01/26 06:31:39;;;;;;;15.13;3.50;;;2.30;87.90;;;;;;5055805;28;20036;-77
2021/01/26 06:34:24;;;;;;;14.60;4.17;;;2.30;87.80;;;;;;5055820;28;20032;-77
2021/01/26 06:37:26;;;;;;;12.50;3.90;;;2.30;88.10;;;;;;5055731;28;20139;-77
2021/01/26 06:40:04;;;;;;;18.57;4.50;;;2.30;87.70;;;;;;5055315;28;20094;-76
2021/01/26 06:42:48;;;;;;;15.80;4.90;;;2.30;87.70;;;;;;5054543;28;20035;-76
2021/01/26 06:45:41;;;;;;;22.07;6.33;;;2.30;88.40;;;;;;5055463;28;20032;-76
2021/01/26 06:48:32;;;;;;;30.63;7.30;;;2.20;87.80;;;;;;5039812;28;20040;-76
2021/01/26 06:51:19;;;;;;;26.00;6.95;;;2.20;87.90;;;;;;5054593;28;20036;-76
2021/01/26 06:54:07;;;;;;;21.43;7.30;;;2.20;87.90;;;;;;5053910;28;20029;-77
2021/01/26 06:57:09;;;;;;;27.63;7.67;;;2.20;87.90;;;;;;5055361;28;20067;-76
2021/01/26 06:59:44;;;;;;;36.27;9.67;;;2.20;88.10;;;;;;5052896;28;20041;-77
2021/01/26 07:02:24;;;;;;;27.50;9.80;;;2.20;88.20;;;;;;5055011;28;20021;-76
2021/01/26 07:05:22;;;;;;;38.97;9.97;;;2.20;88.40;;;;;;5038019;28;20154;-76
2021/01/26 07:08:13;;;;;;;40.27;9.93;;;2.20;88.20;;;;;;5053098;28;20497;-77
2021/01/26 07:11:00;;;;;;;29.05;8.95;;;2.20;88.30;;;;;;5035606;28;20013;-77
2021/01/26 07:13:44;;;;;;;28.27;8.07;;;2.20;88.10;;;;;;5037472;28;20459;-77
2021/01/26 07:16:35;;;;;;;33.23;7.53;;;2.20;88.10;;;;;;5038178;28;20114;-77
2021/01/26 07:19:27;;;;;;;24.15;6.40;;;2.20;88.10;;;;;;5053390;28;20112;-76
2021/01/26 07:22:17;;;;;;;22.20;6.57;;;2.20;88.00;;;;;;5054330;28;20492;-76
2021/01/26 07:24:58;;;;;;;25.03;6.77;;;2.30;87.90;;;;;;5054345;28;20086;-76
2021/01/26 07:27:35;;;;;;;23.38;6.07;;;2.30;88.10;;;;;;5053483;28;20520;-76
2021/01/26 07:30:03;;;;;;;25.10;7.33;;;2.30;88.10;;;;;;5053063;28;20021;-76
2021/01/26 07:32:47;;;;;;;37.73;8.27;;;2.30;88.10;;;;;;5036425;28;20029;-76
2021/01/26 07:35:15;;;;;;;27.47;8.13;;;2.30;87.80;;;;;;5054621;28;20067;-76
2021/01/26 07:37:50;;;;;;;30.00;8.43;;;2.40;87.60;;;;;;5053992;28;20049;-77
2021/01/26 07:40:26;;;;;;;33.13;9.17;;;2.30;87.80;;;;;;5054218;28;20029;-76
2021/01/26 07:43:01;;;;;;;29.43;8.90;;;2.40;87.80;;;;;;5036334;28;20505;-77
2021/01/26 07:45:42;;;;;;;31.63;9.60;;;2.40;87.80;;;;;;5054311;28;20025;-76
2021/01/26 07:48:19;;;;;;;34.57;9.60;;;2.40;88.00;;;;;;5036486;28;20036;-77
2021/01/26 07:50:46;;;;;;;37.83;10.03;;;2.40;88.40;;;;;;5020426;28;20025;-76
2021/01/26 07:53:14;;;;;;;32.70;9.63;;;2.40;87.90;;;;;;5036372;28;20033;-76
2021/01/26 07:55:54;;;;;;;33.60;10.20;;;2.40;87.90;;;;;;5053969;28;20045;-76
2021/01/26 07:58:20;;;;;;;24.30;7.57;;;2.40;87.90;;;;;;5037427;28;20025;-77
2021/01/26 08:00:47;;;;;;;22.43;6.83;;;2.50;87.30;;;;;;5036227;28;20100;-77
2021/01/26 08:03:13;;;;;;;18.77;5.57;;;2.40;87.20;;;;;;5052718;28;20104;-76
2021/01/26 08:05:48;;;;;;;18.60;5.50;;;2.40;87.30;;;;;;5052500;28;20060;-77
2021/01/26 08:08:20;;;;;;;19.30;4.70;;;2.40;87.40;;;;;;5033831;28;20025;-76
2021/01/26 08:10:46;;;;;;;17.43;5.17;;;2.40;87.60;;;;;;5032782;28;20105;-76
2021/01/26 08:13:12;;;;;;;17.80;5.00;;;2.30;87.60;;;;;;5018186;28;20460;-75
2021/01/26 08:15:41;;;;;;;15.97;4.53;;;2.30;87.70;;;;;;5035808;28;20021;-75
2021/01/26 08:18:24;;;;;;;18.63;5.10;;;2.30;87.70;;;;;;5052234;28;20360;-75
2021/01/26 08:20:50;;;;;;;17.43;5.23;;;2.30;87.70;;;;;;5036100;28;20382;-75
2021/01/26 08:23:21;;;;;;;19.30;5.53;;;2.30;87.50;;;;;;5035777;28;20025;-75
2021/01/26 08:25:50;;;;;;;14.47;4.63;;;2.40;87.70;;;;;;5052788;28;20036;-76
2021/01/26 08:28:40;;;;;;;17.97;5.10;;;2.40;87.10;;;;;;5052343;28;20075;-75
2021/01/26 08:31:35;;;;;;;15.35;4.85;;;2.40;87.30;;;;;;5053802;28;20029;-75
2021/01/26 08:34:23;;;;;;;16.87;5.37;;;2.40;87.40;;;;;;5052122;28;20114;-75
2021/01/26 08:37:15;;;;;;;21.30;5.97;;;2.40;87.20;;;;;;5053475;28;20025;-75
2021/01/26 08:39:49;;;;;;;18.23;5.23;;;2.40;87.30;;;;;;5052444;28;20037;-77
2021/01/26 08:42:41;;;;;;;14.07;4.90;;;2.40;87.30;;;;;;5051989;28;20064;-75
2021/01/26 08:45:29;;;;;;;18.43;4.63;;;2.40;87.40;;;;;;5051913;28;20068;-75
2021/01/26 08:48:02;;;;;;;17.00;4.00;;;2.50;87.10;;;;;;5052596;28;20045;-77
2021/01/26 08:50:34;;;;;;;20.77;5.27;;;2.50;86.80;;;;;;5036118;28;20032;-75
2021/01/26 08:53:42;;;;;;;23.07;4.50;;;2.60;86.60;;;;;;5053345;28;20052;-75
2021/01/26 08:56:24;;;;;;;13.23;3.73;;;2.60;86.70;;;;;;5043723;28;20386;-76
2021/01/26 08:58:55;;;;;;;16.17;3.47;;;2.60;86.40;;;;;;5052923;28;20120;-76
2021/01/26 09:01:25;;;;;;;9.98;3.50;;;2.70;86.40;;;;;;5035577;28;20029;-76
2021/01/26 09:04:11;;;;;;;11.97;3.83;;;2.70;86.60;;;;;;5053134;28;20032;-76
2021/01/26 09:06:40;;;;;;;18.63;4.50;;;2.70;86.30;;;;;;5041576;28;20167;-76
2021/01/26 09:09:07;;;;;;;10.73;3.20;;;2.70;86.30;;;;;;5053093;28;20492;-76
2021/01/26 09:11:36;;;;;;;13.57;3.00;;;2.70;86.20;;;;;;5051617;28;20167;-76
2021/01/26 09:14:12;;;;;;;16.03;3.63;;;2.70;86.40;;;;;;5051878;28;20029;-76
2021/01/26 09:16:37;;;;;;;12.90;3.53;;;2.80;86.30;;;;;;5052068;28;20025;-76
2021/01/26 09:19:11;;;;;;;15.93;3.37;;;2.90;85.90;;;;;;5035007;28;20071;-76
2021/01/26 09:21:36;;;;;;;10.03;3.20;;;3.00;85.20;;;;;;5035958;28;20025;-76
2021/01/26 09:24:02;;;;;;;17.93;3.57;;;3.10;84.80;;;;;;5035016;28;20484;-76
2021/01/26 09:26:28;;;;;;;10.97;3.37;;;3.20;84.30;;;;;;5051653;28;20037;-76
2021/01/26 09:28:54;;;;;;;8.87;2.77;;;3.20;84.50;;;;;;5051831;28;20036;-76
2021/01/26 09:31:22;;;;;;;14.27;3.57;;;3.20;84.50;;;;;;5056254;28;20424;-76
2021/01/26 09:33:47;;;;;;;8.77;3.87;;;3.20;84.50;;;;;;5055409;28;20047;-75
2021/01/26 09:36:15;;;;;;;16.10;3.60;;;3.30;84.00;;;;;;5055333;28;20367;-76
2021/01/26 09:38:44;;;;;;;15.50;4.73;;;3.30;83.80;;;;;;5039139;28;20025;-76
2021/01/26 09:41:21;;;;;;;14.30;4.27;;;3.30;83.90;;;;;;5056725;28;20108;-75
2021/01/26 09:43:48;;;;;;;19.33;4.60;;;3.40;83.60;;;;;;5038454;28;20021;-75
2021/01/26 09:46:28;;;;;;;15.77;4.37;;;3.50;83.30;;;;;;5038861;28;20036;-75
2021/01/26 09:48:55;;;;;;;20.13;4.93;;;3.60;82.90;;;;;;5055165;28;20040;-75
2021/01/26 09:51:29;;;;;;;15.27;4.83;;;3.70;82.30;;;;;;5055518;28;20067;-75
2021/01/26 09:54:07;;;;;;;19.90;5.30;;;3.70;82.40;;;;;;5022423;28;20029;-75
2021/01/26 09:56:34;;;;;;;12.40;4.97;;;3.90;82.00;;;;;;5055240;28;20551;-76
2021/01/26 09:59:00;;;;;;;18.17;4.97;;;4.10;81.60;;;;;;5038862;28;20439;-76
2021/01/26 10:01:26;;;;;;;26.50;5.33;;;4.20;80.10;;;;;;5055187;28;20056;-76
2021/01/26 10:03:58;;;;;;;17.20;4.93;;;4.30;79.70;;;;;;5038547;28;20102;-76
2021/01/26 10:06:24;;;;;;;13.77;4.40;;;4.40;79.40;;;;;;5039209;28;20033;-76
2021/01/26 10:08:50;;;;;;;15.53;4.40;;;4.50;79.40;;;;;;5048791;28;20025;-76
2021/01/26 10:11:18;;;;;;;17.93;4.03;;;4.50;79.00;;;;;;5055530;28;20021;-76
2021/01/26 10:13:44;;;;;;;13.93;4.20;;;4.50;79.50;;;;;;5038473;28;20052;-76
2021/01/26 10:16:28;;;;;;;17.07;4.10;;;4.40;79.40;;;;;;5038539;28;20024;-76
2021/01/26 10:18:55;;;;;;;19.97;4.67;;;4.40;79.20;;;;;;5055944;28;20029;-76
2021/01/26 10:21:30;;;;;;;13.93;4.60;;;4.40;79.80;;;;;;5055886;28;20112;-75
2021/01/26 10:24:07;;;;;;;24.73;5.10;;;4.50;79.20;;;;;;5038038;28;20029;-76
2021/01/26 10:26:35;;;;;;;12.77;3.90;;;4.60;79.00;;;;;;5055717;28;20029;-76
2021/01/26 10:29:07;;;;;;;12.23;3.27;;;4.70;78.60;;;;;;5038184;28;20033;-76
2021/01/26 10:31:40;;;;;;;10.93;3.73;;;4.80;78.10;;;;;;5055782;28;20060;-75
2021/01/26 10:34:34;;;;;;;9.93;3.47;;;4.80;77.90;;;;;;5053797;28;20040;-76
2021/01/26 10:37:21;;;;;;;7.67;3.27;;;4.90;77.60;;;;;;5055543;28;20466;-75
2021/01/26 10:40:13;;;;;;;12.93;3.70;;;5.00;77.30;;;;;;5054703;28;20070;-76
2021/01/26 10:42:40;;;;;;;10.50;3.43;;;5.00;77.70;;;;;;5053372;28;20557;-76
2021/01/26 10:45:06;;;;;;;9.10;3.53;;;5.10;77.30;;;;;;5054129;28;20108;-76
2021/01/26 10:47:36;;;;;;;10.80;3.60;;;4.90;77.30;;;;;;5054587;28;20045;-75
2021/01/26 10:50:11;;;;;;;11.97;3.73;;;4.80;77.50;;;;;;5055097;28;20029;-75
2021/01/26 10:52:46;;;;;;;10.83;3.40;;;4.80;77.60;;;;;;5037490;28;20025;-76
2021/01/26 10:55:17;;;;;;;12.07;3.27;;;4.80;77.80;;;;;;5055030;28;20332;-76
2021/01/26 10:57:43;;;;;;;10.63;3.60;;;4.80;78.00;;;;;;5055457;28;20409;-76
2021/01/26 11:00:11;;;;;;;10.90;4.07;;;4.80;77.90;;;;;;5055130;28;20074;-77
2021/01/26 11:02:37;;;;;;;14.47;4.30;;;4.90;77.40;;;;;;5037278;28;20056;-76
2021/01/26 11:05:04;;;;;;;9.77;4.07;;;5.00;76.70;;;;;;5054841;28;20098;-77
2021/01/26 11:07:30;;;;;;;8.77;3.63;;;5.00;77.00;;;;;;5055072;28;20032;-77
2021/01/26 11:09:55;;;;;;;8.47;3.87;;;5.10;76.60;;;;;;5054866;28;20026;-77
2021/01/26 11:12:21;;;;;;;11.13;4.03;;;5.20;76.20;;;;;;5055108;28;20029;-77
2021/01/26 11:14:50;;;;;;;11.63;4.00;;;5.20;75.80;;;;;;5054861;28;20063;-77
2021/01/26 11:17:16;;;;;;;11.10;4.27;;;5.20;75.80;;;;;;5053494;28;20516;-77
2021/01/26 11:19:43;;;;;;;12.73;4.47;;;5.30;76.10;;;;;;5053645;28;20029;-77
2021/01/26 11:22:09;;;;;;;12.63;4.17;;;5.40;75.40;;;;;;5037144;28;20029;-77
2021/01/26 11:24:34;;;;;;;11.47;3.97;;;5.50;76.00;;;;;;5054565;28;20025;-77
2021/01/26 11:27:00;;;;;;;6.93;3.97;;;5.60;75.30;;;;;;5053258;28;20543;-76
2021/01/26 11:29:26;;;;;;;7.40;3.60;;;5.60;74.70;;;;;;5054589;28;20078;-77
2021/01/26 11:31:51;;;;;;;8.10;3.13;;;5.60;75.10;;;;;;5053534;28;20048;-77
2021/01/26 11:34:17;;;;;;;8.97;3.67;;;5.50;75.20;;;;;;5054328;28;20119;-77
2021/01/26 11:36:42;;;;;;;7.80;3.00;;;5.60;75.60;;;;;;5054481;28;20098;-75
2021/01/26 11:39:08;;;;;;;9.23;3.40;;;5.70;74.90;;;;;;5054490;28;20472;-75
2021/01/26 11:41:34;;;;;;;7.67;3.77;;;5.70;74.10;;;;;;5052812;28;20029;-75
2021/01/26 11:43:59;;;;;;;9.50;3.23;;;5.70;74.70;;;;;;5054228;28;20382;-75
2021/01/26 11:46:25;;;;;;;15.23;4.80;;;5.70;74.80;;;;;;5054092;28;20159;-75
2021/01/26 11:48:50;;;;;;;9.50;3.73;;;5.80;75.30;;;;;;5052917;28;20044;-75
2021/01/26 11:51:16;;;;;;;10.40;3.73;;;5.80;75.00;;;;;;5054653;28;20025;-76
2021/01/26 11:53:42;;;;;;;16.80;3.97;;;5.90;75.10;;;;;;5053567;28;20124;-76
2021/01/26 11:56:07;;;;;;;13.70;3.80;;;6.00;74.90;;;;;;5054276;28;20052;-76
2021/01/26 11:58:35;;;;;;;8.93;3.10;;;6.00;74.30;;;;;;5053039;28;20025;-75
2021/01/26 12:01:00;;;;;;;11.57;3.00;;;6.10;74.00;;;;;;5054083;28;20025;-75
2021/01/26 12:03:26;;;;;;;10.80;3.43;;;6.20;73.10;;;;;;5053903;28;20111;-75
2021/01/26 12:05:52;;;;;;;8.33;2.77;;;6.30;72.80;;;;;;5052953;28;20389;-75
2021/01/26 12:08:17;;;;;;;11.47;2.90;;;6.40;72.10;;;;;;5049770;28;20025;-76
2021/01/26 12:10:43;;;;;;;6.00;2.27;;;6.40;71.20;;;;;;5052717;28;20025;-75
2021/01/26 12:13:09;;;;;;;8.27;2.80;;;6.40;70.80;;;;;;5052539;28;20061;-75
2021/01/26 12:15:35;;;;;;;6.57;2.40;;;6.50;71.70;;;;;;5052505;28;20108;-75
2021/01/26 12:18:01;;;;;;;12.50;3.00;;;6.50;71.50;;;;;;5035691;28;20036;-76
2021/01/26 12:20:27;;;;;;;8.07;3.00;;;6.50;71.40;;;;;;5053647;28;20025;-76
2021/01/26 12:22:57;;;;;;;8.10;3.10;;;6.40;71.90;;;;;;5052285;28;20033;-76
2021/01/26 12:25:23;;;;;;;13.67;3.57;;;6.40;72.80;;;;;;5036375;28;20044;-76
2021/01/26 12:27:48;;;;;;;8.47;3.80;;;6.30;73.20;;;;;;5051074;28;20025;-76
2021/01/26 12:30:15;;;;;;;8.70;3.73;;;6.30;73.70;;;;;;5053493;28;20048;-76
2021/01/26 12:32:40;;;;;;;8.90;3.27;;;6.30;74.50;;;;;;5052184;28;20059;-76
2021/01/26 12:35:09;;;;;;;9.27;3.80;;;6.40;74.20;;;;;;5052378;28;20103;-76
2021/01/26 12:37:35;;;;;;;13.07;3.97;;;6.40;73.80;;;;;;5053380;28;20021;-76
2021/01/26 12:40:00;;;;;;;7.03;3.90;;;6.30;74.80;;;;;;5053403;28;20032;-77
2021/01/26 12:42:26;;;;;;;11.97;4.30;;;6.20;75.00;;;;;;5051993;28;20526;-76
2021/01/26 12:44:51;;;;;;;10.17;4.17;;;6.00;74.80;;;;;;5052277;28;20029;-76
2021/01/26 12:47:18;;;;;;;11.53;4.03;;;6.00;75.50;;;;;;5035591;28;20116;-75
2021/01/26 12:49:44;;;;;;;8.57;3.90;;;6.00;75.60;;;;;;5053609;28;20046;-76
2021/01/26 12:52:10;;;;;;;10.47;4.40;;;6.00;75.10;;;;;;5051421;28;20036;-76
2021/01/26 12:54:35;;;;;;;10.93;4.57;;;6.00;75.10;;;;;;5053069;28;20047;-76
2021/01/26 12:57:01;;;;;;;10.67;3.90;;;6.10;74.50;;;;;;5053260;28;20033;-76
2021/01/26 12:59:26;;;;;;;14.07;4.50;;;6.10;73.90;;;;;;5053028;28;20115;-76
2021/01/26 13:01:52;;;;;;;8.57;3.93;;;6.00;74.40;;;;;;5052995;28;20029;-76
2021/01/26 13:04:17;;;;;;;9.17;3.83;;;6.00;74.30;;;;;;5051852;28;20032;-76
2021/01/26 13:06:43;;;;;;;9.13;4.00;;;5.90;74.10;;;;;;5055080;28;20086;-78
2021/01/26 13:09:09;;;;;;;10.23;3.93;;;5.90;74.20;;;;;;5057129;28;20128;-75
2021/01/26 13:11:35;;;;;;;10.80;4.23;;;6.00;74.00;;;;;;5056014;28;20113;-76
2021/01/26 13:14:00;;;;;;;13.13;4.33;;;6.00;73.30;;;;;;5055805;28;20458;-77
2021/01/26 13:16:26;;;;;;;12.03;3.97;;;6.10;73.00;;;;;;5055824;28;20036;-75